Time;durP1;ratioP1;P1;durP2;ratioP2;P2;SDS_P1;SDS_P2;PMS_P1;PMS_P2;Temp;Humidity;BMP_temperature;BMP_pressure;BME280_temperature;BME280_humidity;BME280_pressure;Samples;Min_cycle;Max_cycle;Signal;HPM_P1;HPM_P2
2022/09/21 00:01:30;;;;;;;10.13;9.83;;;6.80;99.90;;;;;;5146584;27;20708;-80
2022/09/21 00:04:00;;;;;;;10.27;9.97;;;6.80;99.90;;;;;;5146075;27;21049;-80
2022/09/21 00:06:34;;;;;;;10.00;9.70;;;6.80;99.90;;;;;;5145654;27;20322;-80
2022/09/21 00:09:02;;;;;;;10.20;9.90;;;6.70;99.90;;;;;;5145970;27;20327;-80
2022/09/21 00:11:32;;;;;;;10.30;10.00;;;6.60;99.90;;;;;;5145573;27;20232;-80
2022/09/21 00:14:06;;;;;;;10.13;9.83;;;6.60;99.90;;;;;;5144808;27;20228;-80
2022/09/21 00:16:34;;;;;;;10.37;10.07;;;6.50;99.90;;;;;;5145125;27;20231;-80
2022/09/21 00:19:02;;;;;;;10.00;9.70;;;6.50;99.90;;;;;;5144665;27;20291;-80
2022/09/21 00:21:31;;;;;;;10.40;10.10;;;6.50;99.90;;;;;;5144486;27;20247;-80
2022/09/21 00:23:59;;;;;;;10.20;9.90;;;6.50;99.90;;;;;;5144201;27;20265;-80
2022/09/21 00:26:28;;;;;;;9.87;9.57;;;6.40;99.90;;;;;;5144497;27;20263;-80
2022/09/21 00:28:58;;;;;;;10.10;9.80;;;6.40;99.90;;;;;;5144742;27;20281;-80
2022/09/21 00:31:26;;;;;;;10.00;9.70;;;6.40;99.90;;;;;;5144978;27;20315;-80
2022/09/21 00:33:54;;;;;;;10.10;9.80;;;6.40;99.90;;;;;;5144079;27;20263;-80
2022/09/21 00:36:24;;;;;;;10.23;9.93;;;6.30;99.90;;;;;;5144150;27;20220;-80
2022/09/21 00:38:57;;;;;;;10.00;9.70;;;6.30;99.90;;;;;;5143936;27;20234;-80
2022/09/21 00:41:25;;;;;;;9.97;9.67;;;6.30;99.90;;;;;;5143185;27;20212;-80
2022/09/21 00:44:30;;;;;;;10.30;10.00;;;6.30;99.90;;;;;;5145065;27;20339;-80
2022/09/21 00:47:04;;;;;;;10.00;9.70;;;6.30;99.90;;;;;;5144127;27;20734;-80
2022/09/21 00:49:31;;;;;;;10.20;9.90;;;6.30;99.90;;;;;;5151963;27;20295;-78
2022/09/21 00:52:03;;;;;;;10.13;9.83;;;6.30;99.90;;;;;;5151113;27;20322;-80
2022/09/21 00:54:37;;;;;;;10.20;9.90;;;6.30;99.90;;;;;;5147370;27;20239;-80
2022/09/21 00:57:06;;;;;;;10.37;10.07;;;6.20;99.90;;;;;;5145277;27;20232;-78
2022/09/21 00:59:37;;;;;;;10.43;10.13;;;6.20;99.90;;;;;;5145768;27;20242;-79
2022/09/21 01:02:06;;;;;;;10.10;9.80;;;6.10;99.90;;;;;;5145348;27;20232;-80
2022/09/21 01:04:35;;;;;;;10.40;10.10;;;6.10;99.90;;;;;;5144341;27;20232;-80
2022/09/21 01:07:06;;;;;;;10.17;9.87;;;6.10;99.90;;;;;;5143930;27;20240;-80
2022/09/21 01:09:36;;;;;;;10.30;10.00;;;6.10;99.90;;;;;;5145577;27;20288;-80
2022/09/21 01:12:19;;;;;;;10.20;9.90;;;6.10;99.90;;;;;;5144863;27;20267;-80
2022/09/21 01:15:09;;;;;;;10.27;9.97;;;6.10;99.90;;;;;;5143956;27;20278;-80
2022/09/21 01:17:47;;;;;;;10.20;9.90;;;6.10;99.90;;;;;;5143544;27;20224;-80
2022/09/21 01:20:52;;;;;;;10.17;9.87;;;6.00;99.90;;;;;;5143578;27;20248;-80
2022/09/21 01:23:45;;;;;;;10.10;9.80;;;6.00;99.90;;;;;;5143912;27;20284;-79
2022/09/21 01:26:26;;;;;;;10.27;9.97;;;5.90;99.90;;;;;;5144767;27;20318;-80
2022/09/21 01:29:16;;;;;;;10.47;10.17;;;5.90;99.90;;;;;;5144055;27;20236;-80
2022/09/21 01:31:51;;;;;;;10.30;10.00;;;5.80;99.90;;;;;;5143929;27;20228;-80
2022/09/21 01:34:27;;;;;;;10.27;9.97;;;5.80;99.90;;;;;;5143544;27;20235;-79
2022/09/21 01:37:02;;;;;;;10.20;9.90;;;5.80;99.90;;;;;;5143830;27;20254;-80
2022/09/21 01:39:36;;;;;;;10.40;10.10;;;5.80;99.90;;;;;;5144463;27;20299;-80
2022/09/21 01:42:11;;;;;;;10.37;10.07;;;5.80;99.90;;;;;;5144289;27;20232;-80
2022/09/21 01:44:44;;;;;;;10.40;10.10;;;5.80;99.90;;;;;;5143365;27;20232;-80
2022/09/21 01:47:14;;;;;;;10.30;10.00;;;5.80;99.90;;;;;;5143993;27;20232;-80
2022/09/21 01:49:46;;;;;;;10.30;10.00;;;5.80;99.90;;;;;;5146978;27;20228;-80
2022/09/21 01:52:19;;;;;;;10.20;9.90;;;5.80;99.90;;;;;;5146368;27;20277;-80
2022/09/21 01:54:55;;;;;;;10.17;9.87;;;5.90;99.90;;;;;;5145079;27;20241;-80
2022/09/21 01:57:29;;;;;;;10.13;9.83;;;5.80;99.90;;;;;;5145019;27;20230;-79
2022/09/21 02:00:00;;;;;;;10.30;10.00;;;5.90;99.90;;;;;;5144729;27;20254;-80
2022/09/21 02:02:36;;;;;;;10.23;9.93;;;5.90;99.90;;;;;;5143702;27;20288;-80
2022/09/21 02:05:06;;;;;;;10.20;9.90;;;5.80;99.90;;;;;;5142217;27;20253;-79
2022/09/21 02:07:35;;;;;;;10.33;10.03;;;5.80;99.90;;;;;;5142398;27;20310;-80
2022/09/21 02:10:04;;;;;;;10.10;9.80;;;5.90;99.90;;;;;;5142922;27;20236;-80
2022/09/21 02:12:31;;;;;;;9.93;9.63;;;5.90;99.90;;;;;;5142425;27;20235;-79
2022/09/21 02:15:02;;;;;;;10.20;9.90;;;5.90;99.90;;;;;;5141820;27;20293;-79
2022/09/21 02:17:42;;;;;;;10.30;10.00;;;6.00;99.90;;;;;;5142882;27;20231;-80
2022/09/21 02:20:20;;;;;;;10.43;10.13;;;6.00;99.90;;;;;;5144291;27;20235;-79
2022/09/21 02:23:03;;;;;;;10.57;10.27;;;6.00;99.90;;;;;;5156185;27;20302;-80
2022/09/21 02:25:46;;;;;;;10.43;10.13;;;6.00;99.90;;;;;;5152652;27;20228;-80
2022/09/21 02:28:26;;;;;;;10.40;10.10;;;5.90;99.90;;;;;;5154119;27;20220;-80
2022/09/21 02:31:03;;;;;;;10.40;10.10;;;5.90;99.90;;;;;;5144655;27;20243;-80
2022/09/21 02:33:38;;;;;;;10.60;10.30;;;5.90;99.90;;;;;;5144654;27;20232;-80
2022/09/21 02:36:12;;;;;;;10.40;10.10;;;5.90;99.90;;;;;;5142115;27;20270;-80
2022/09/21 02:38:45;;;;;;;10.10;9.80;;;5.90;99.90;;;;;;5142664;27;20283;-80
2022/09/21 02:41:22;;;;;;;10.40;10.10;;;5.90;99.90;;;;;;5142262;27;20243;-80
2022/09/21 02:43:58;;;;;;;10.30;10.00;;;5.90;99.90;;;;;;5142100;27;20238;-81
2022/09/21 02:46:35;;;;;;;10.60;10.30;;;6.00;99.90;;;;;;5141598;27;20224;-80
2022/09/21 02:49:08;;;;;;;10.60;10.30;;;6.00;99.90;;;;;;5142707;27;20235;-80
2022/09/21 02:51:41;;;;;;;10.60;10.30;;;6.00;99.90;;;;;;5143555;27;20306;-81
2022/09/21 02:54:12;;;;;;;10.73;10.43;;;5.90;99.90;;;;;;5143841;27;20303;-80
2022/09/21 02:56:41;;;;;;;10.50;10.20;;;5.90;99.90;;;;;;5143476;27;20230;-80
2022/09/21 02:59:09;;;;;;;10.60;10.30;;;6.00;99.90;;;;;;5143652;27;20236;-80
2022/09/21 03:01:40;;;;;;;10.47;10.17;;;6.00;99.90;;;;;;5142513;27;20236;-80
2022/09/21 03:04:08;;;;;;;10.40;10.10;;;6.10;99.90;;;;;;5143275;27;20291;-80
2022/09/21 03:06:36;;;;;;;10.37;10.07;;;6.10;99.90;;;;;;5145797;27;20238;-81
2022/09/21 03:09:04;;;;;;;10.20;9.90;;;6.20;99.90;;;;;;5146023;27;20228;-80
2022/09/21 03:11:32;;;;;;;10.50;10.20;;;6.20;99.90;;;;;;5146179;27;20232;-79
2022/09/21 03:14:01;;;;;;;10.23;9.93;;;6.20;99.90;;;;;;5145799;27;20235;-79
2022/09/21 03:16:28;;;;;;;10.50;10.20;;;6.10;99.90;;;;;;5149741;27;20224;-79
2022/09/21 03:18:58;;;;;;;10.33;10.03;;;6.00;99.90;;;;;;5155717;27;20223;-79
2022/09/21 03:21:25;;;;;;;10.50;10.20;;;6.00;99.90;;;;;;5151225;27;20296;-79
2022/09/21 03:23:53;;;;;;;10.27;9.97;;;6.00;99.90;;;;;;5149187;27;20295;-80
2022/09/21 03:26:21;;;;;;;10.30;10.00;;;6.00;99.90;;;;;;5147631;27;20238;-79
2022/09/21 03:28:49;;;;;;;10.30;10.00;;;6.00;99.90;;;;;;5147134;27;20219;-79
2022/09/21 03:31:17;;;;;;;10.30;10.00;;;5.90;99.90;;;;;;5147470;27;20224;-79
2022/09/21 03:33:46;;;;;;;10.13;9.83;;;5.90;99.90;;;;;;5147293;27;20236;-79
2022/09/21 03:36:15;;;;;;;10.20;9.90;;;5.90;99.90;;;;;;5146371;27;20236;-80
2022/09/21 03:38:43;;;;;;;10.00;9.70;;;5.90;99.90;;;;;;5148354;27;20307;-79
2022/09/21 03:41:14;;;;;;;9.90;9.60;;;5.90;99.90;;;;;;5146736;27;20275;-79
2022/09/21 03:43:41;;;;;;;9.90;9.60;;;5.90;99.90;;;;;;5146459;27;20228;-79
2022/09/21 03:46:09;;;;;;;9.77;9.47;;;5.90;99.90;;;;;;5145948;27;20230;-79
2022/09/21 03:48:36;;;;;;;9.70;9.40;;;5.90;99.90;;;;;;5145340;27;20623;-79
2022/09/21 03:51:04;;;;;;;9.67;9.37;;;5.90;99.90;;;;;;5145943;27;20259;-79
2022/09/21 03:53:33;;;;;;;9.90;9.60;;;5.90;99.90;;;;;;5145661;27;20235;-79
2022/09/21 03:56:01;;;;;;;9.73;9.43;;;6.00;99.90;;;;;;5143725;27;20322;-79
2022/09/21 03:58:28;;;;;;;9.90;9.60;;;6.00;99.90;;;;;;5144809;27;20266;-79
2022/09/21 04:01:02;;;;;;;9.60;9.30;;;6.00;99.90;;;;;;5144834;27;20227;-81
2022/09/21 04:03:30;;;;;;;9.90;9.60;;;6.10;99.90;;;;;;5145242;27;20224;-81
2022/09/21 04:05:57;;;;;;;10.00;9.70;;;6.10;99.90;;;;;;5144285;27;20330;-81
2022/09/21 04:08:25;;;;;;;10.10;9.80;;;6.10;99.90;;;;;;5145267;27;20987;-79
2022/09/21 04:10:55;;;;;;;9.80;9.50;;;6.10;99.90;;;;;;5145189;27;20231;-80
2022/09/21 04:13:23;;;;;;;10.07;9.77;;;6.00;99.90;;;;;;5144790;27;20231;-81
2022/09/21 04:15:53;;;;;;;9.93;9.63;;;6.10;99.90;;;;;;5144197;27;20327;-81
2022/09/21 04:18:20;;;;;;;10.07;9.77;;;6.10;99.90;;;;;;5144536;27;20220;-81
2022/09/21 04:20:48;;;;;;;10.00;9.70;;;6.10;99.90;;;;;;5145127;27;21051;-80
2022/09/21 04:23:15;;;;;;;10.13;9.83;;;6.00;99.90;;;;;;5145309;27;20234;-80
2022/09/21 04:25:45;;;;;;;10.20;9.90;;;6.10;99.90;;;;;;5143875;27;20291;-80
2022/09/21 04:28:14;;;;;;;10.10;9.80;;;6.10;99.90;;;;;;5144920;27;20250;-80
2022/09/21 04:30:41;;;;;;;10.20;9.90;;;6.10;99.90;;;;;;5145538;27;20228;-81
2022/09/21 04:33:09;;;;;;;10.07;9.77;;;6.20;99.90;;;;;;5145172;27;20323;-80
2022/09/21 04:35:37;;;;;;;9.87;9.57;;;6.20;99.90;;;;;;5143940;27;20262;-80
2022/09/21 04:38:07;;;;;;;10.00;9.70;;;6.20;99.90;;;;;;5144353;27;20230;-81
2022/09/21 04:40:38;;;;;;;9.80;9.50;;;6.10;99.90;;;;;;5144263;27;20239;-80
2022/09/21 04:43:06;;;;;;;9.70;9.40;;;6.20;99.90;;;;;;5143651;27;20228;-80
2022/09/21 04:45:35;;;;;;;10.00;9.70;;;6.10;99.90;;;;;;5142142;27;20243;-80
2022/09/21 04:48:06;;;;;;;10.10;9.80;;;6.10;99.90;;;;;;5141586;27;20228;-80
2022/09/21 04:50:36;;;;;;;10.10;9.80;;;6.10;99.90;;;;;;5141858;27;20296;-80
2022/09/21 04:53:05;;;;;;;10.60;10.30;;;6.20;99.90;;;;;;5142089;27;20256;-81
2022/09/21 04:55:33;;;;;;;10.70;10.40;;;6.20;99.90;;;;;;5148051;27;20235;-80
2022/09/21 04:58:00;;;;;;;10.80;10.50;;;6.10;99.90;;;;;;5150997;27;20240;-82
2022/09/21 05:00:28;;;;;;;11.57;11.17;;;6.10;99.90;;;;;;5151934;27;20284;-80
2022/09/21 05:02:57;;;;;;;11.10;10.70;;;6.00;99.90;;;;;;5150685;27;20247;-80
2022/09/21 05:05:27;;;;;;;11.33;10.93;;;6.00;99.90;;;;;;5148448;27;20297;-80
2022/09/21 05:07:56;;;;;;;11.17;10.77;;;6.00;99.90;;;;;;5149957;27;20209;-81
2022/09/21 05:10:22;;;;;;;11.37;10.97;;;6.00;99.90;;;;;;5150575;27;20220;-80
2022/09/21 05:12:51;;;;;;;10.70;10.40;;;6.00;99.90;;;;;;5153258;27;20244;-80
2022/09/21 05:15:19;;;;;;;10.70;10.40;;;6.00;99.90;;;;;;5149423;27;20238;-80
2022/09/21 05:17:46;;;;;;;10.60;10.30;;;6.00;99.90;;;;;;5151215;27;20283;-81
2022/09/21 05:20:16;;;;;;;10.60;10.30;;;6.00;99.90;;;;;;5150561;27;20238;-80
2022/09/21 05:22:43;;;;;;;10.70;10.40;;;6.00;99.90;;;;;;5153334;27;20250;-80
2022/09/21 05:25:11;;;;;;;10.70;10.40;;;6.00;99.90;;;;;;5150022;27;20243;-80
2022/09/21 05:27:38;;;;;;;10.30;10.00;;;6.10;99.90;;;;;;5149883;27;20227;-80
2022/09/21 05:30:08;;;;;;;10.60;10.30;;;6.10;99.90;;;;;;5149252;27;20326;-80
2022/09/21 05:32:45;;;;;;;10.50;10.20;;;6.20;99.90;;;;;;5148325;27;20322;-80
2022/09/21 05:35:26;;;;;;;10.20;9.90;;;6.20;99.90;;;;;;5145202;27;20243;-80
2022/09/21 05:38:02;;;;;;;10.33;10.03;;;6.30;99.90;;;;;;5144205;27;20220;-80
2022/09/21 05:40:30;;;;;;;10.43;10.13;;;6.30;99.90;;;;;;5143562;27;20233;-80
2022/09/21 05:42:59;;;;;;;10.33;10.03;;;6.30;99.90;;;;;;5143791;27;20235;-79
2022/09/21 05:45:28;;;;;;;9.87;9.57;;;6.30;99.90;;;;;;5141103;27;20227;-79
2022/09/21 05:48:07;;;;;;;10.40;10.10;;;6.40;99.90;;;;;;5141822;27;20232;-79
2022/09/21 05:50:58;;;;;;;10.00;9.70;;;6.40;99.90;;;;;;5143079;27;20234;-79
2022/09/21 05:53:49;;;;;;;10.20;9.90;;;6.40;99.90;;;;;;5142816;27;20274;-80
2022/09/21 05:56:34;;;;;;;10.17;9.87;;;6.40;99.90;;;;;;5142448;27;20240;-79
2022/09/21 05:59:25;;;;;;;10.20;9.90;;;6.40;99.90;;;;;;5142150;27;20231;-80
2022/09/21 06:02:05;;;;;;;10.20;9.90;;;6.50;99.90;;;;;;5141545;27;20236;-80
2022/09/21 06:04:33;;;;;;;10.00;9.70;;;6.50;99.90;;;;;;5141234;27;20292;-80
2022/09/21 06:07:03;;;;;;;10.30;10.00;;;6.50;99.90;;;;;;5140807;27;20472;-82
2022/09/21 06:09:30;;;;;;;10.20;9.90;;;6.50;99.90;;;;;;5141506;27;20235;-82
2022/09/21 06:11:59;;;;;;;9.93;9.63;;;6.50;99.90;;;;;;5142471;27;20316;-82
2022/09/21 06:14:31;;;;;;;10.10;9.80;;;6.60;99.90;;;;;;5141725;27;20236;-83
2022/09/21 06:16:58;;;;;;;10.10;9.80;;;6.70;99.90;;;;;;5141618;27;20224;-83
2022/09/21 06:19:28;;;;;;;10.20;9.90;;;6.70;99.90;;;;;;5142184;27;20320;-83
2022/09/21 06:21:57;;;;;;;10.30;10.00;;;6.70;99.90;;;;;;5148003;27;20234;-81
2022/09/21 06:24:28;;;;;;;10.10;9.80;;;6.70;99.90;;;;;;5154447;27;20232;-82
2022/09/21 06:26:57;;;;;;;10.20;9.90;;;6.70;99.90;;;;;;5142885;27;20235;-81
2022/09/21 06:29:26;;;;;;;10.40;10.10;;;6.70;99.90;;;;;;5143260;27;20224;-81
2022/09/21 06:31:54;;;;;;;10.30;10.00;;;6.70;99.90;;;;;;5141764;27;20274;-82
2022/09/21 06:34:23;;;;;;;10.27;9.97;;;6.80;99.90;;;;;;5140791;27;20240;-82
2022/09/21 06:36:54;;;;;;;10.13;9.83;;;6.70;99.90;;;;;;5141846;27;20242;-88
2022/09/21 06:39:24;;;;;;;10.20;9.90;;;6.70;99.90;;;;;;5143718;27;20235;-88
2022/09/21 06:41:56;;;;;;;10.03;9.73;;;6.80;99.90;;;;;;5145586;27;20238;-86
2022/09/21 06:44:23;;;;;;;10.27;9.97;;;6.80;99.90;;;;;;5145232;27;20236;-86
2022/09/21 06:46:54;;;;;;;10.33;10.03;;;6.90;99.90;;;;;;5144911;27;20311;-85
2022/09/21 06:49:26;;;;;;;10.20;9.90;;;7.00;99.90;;;;;;5145580;27;20235;-87
2022/09/21 06:51:53;;;;;;;10.10;9.80;;;7.00;99.90;;;;;;5145754;27;20249;-89
2022/09/21 06:54:23;;;;;;;10.23;9.93;;;7.10;99.90;;;;;;5144750;27;20335;-86
2022/09/21 06:56:52;;;;;;;10.17;9.87;;;7.10;99.90;;;;;;5145093;27;20236;-86
2022/09/21 06:59:24;;;;;;;10.23;9.93;;;7.10;99.90;;;;;;5144995;27;21046;-85
2022/09/21 07:01:57;;;;;;;10.20;9.90;;;7.20;99.90;;;;;;5145047;27;20679;-90
2022/09/21 07:04:31;;;;;;;10.20;9.90;;;7.20;99.90;;;;;;5144232;27;20297;-84
2022/09/21 07:06:59;;;;;;;10.20;9.90;;;7.20;99.90;;;;;;5151081;27;20283;-84
2022/09/21 07:09:28;;;;;;;9.87;9.57;;;7.20;99.90;;;;;;5146007;27;20231;-83
2022/09/21 07:11:57;;;;;;;9.83;9.53;;;7.30;99.90;;;;;;5145104;27;20228;-83
2022/09/21 07:14:29;;;;;;;10.03;9.73;;;7.40;99.90;;;;;;5146118;27;20259;-82
2022/09/21 07:16:56;;;;;;;10.00;9.70;;;7.50;99.90;;;;;;5145098;27;20255;-84
2022/09/21 07:19:26;;;;;;;10.17;9.87;;;7.50;99.90;;;;;;5144392;27;20273;-83
2022/09/21 07:21:55;;;;;;;9.90;9.60;;;7.60;99.90;;;;;;5144765;27;20334;-82
2022/09/21 07:24:24;;;;;;;10.10;9.80;;;7.60;99.90;;;;;;5143698;27;20236;-82
2022/09/21 07:26:52;;;;;;;9.93;9.63;;;7.60;99.90;;;;;;5143426;27;20259;-81
2022/09/21 07:29:21;;;;;;;9.90;9.60;;;7.70;99.90;;;;;;5143017;27;20315;-82
2022/09/21 07:31:51;;;;;;;10.30;10.00;;;7.80;99.90;;;;;;5143273;27;20228;-82
2022/09/21 07:34:22;;;;;;;10.30;10.00;;;7.80;99.90;;;;;;5143186;27;20323;-81
2022/09/21 07:36:50;;;;;;;10.40;10.10;;;7.90;99.90;;;;;;5143590;27;20276;-80
2022/09/21 07:39:19;;;;;;;10.40;10.10;;;7.90;99.90;;;;;;5143310;27;20224;-82
2022/09/21 07:41:48;;;;;;;9.97;9.67;;;7.90;99.90;;;;;;5143280;27;20266;-83
2022/09/21 07:44:16;;;;;;;10.00;9.70;;;8.00;99.90;;;;;;5143226;27;20274;-83
2022/09/21 07:46:45;;;;;;;10.20;9.90;;;8.10;99.90;;;;;;5143002;27;20267;-83
2022/09/21 07:49:15;;;;;;;10.10;9.80;;;8.10;99.90;;;;;;5143745;27;20319;-83
2022/09/21 07:51:42;;;;;;;10.33;10.03;;;8.20;99.90;;;;;;5143583;27;20326;-83
2022/09/21 07:54:11;;;;;;;10.13;9.83;;;8.20;99.90;;;;;;5144004;27;20243;-81
2022/09/21 07:56:39;;;;;;;9.80;9.50;;;8.20;99.90;;;;;;5142837;27;20287;-83
2022/09/21 07:59:05;;;;;;;10.20;9.90;;;8.30;99.90;;;;;;5144301;27;20320;-82
2022/09/21 08:01:36;;;;;;;10.20;9.90;;;8.30;99.90;;;;;;5143038;27;20228;-83
2022/09/21 08:04:06;;;;;;;10.20;9.90;;;8.50;99.90;;;;;;5142914;27;20266;-84
2022/09/21 08:06:38;;;;;;;10.17;9.87;;;8.50;99.90;;;;;;5143036;27;20265;-83
2022/09/21 08:09:07;;;;;;;10.40;10.10;;;8.60;99.90;;;;;;5143643;27;20224;-82
2022/09/21 08:11:36;;;;;;;10.30;10.00;;;8.70;99.90;;;;;;5143630;27;20235;-83
2022/09/21 08:14:04;;;;;;;10.50;10.20;;;8.70;99.90;;;;;;5142707;27;20224;-81
2022/09/21 08:16:34;;;;;;;10.27;9.97;;;8.80;99.90;;;;;;5140106;27;20293;-84
2022/09/21 08:19:04;;;;;;;10.23;9.93;;;8.90;99.90;;;;;;5145718;27;20246;-85
2022/09/21 08:21:33;;;;;;;10.20;9.90;;;8.90;99.90;;;;;;5148617;27;20249;-84
2022/09/21 08:24:06;;;;;;;9.83;9.53;;;8.90;99.90;;;;;;5146854;27;20228;-81
2022/09/21 08:26:34;;;;;;;9.80;9.50;;;9.00;99.90;;;;;;5142898;27;20224;-86
2022/09/21 08:29:01;;;;;;;9.70;9.40;;;9.10;99.90;;;;;;5143868;27;20238;-83
2022/09/21 08:31:29;;;;;;;9.97;9.67;;;9.20;99.90;;;;;;5143775;27;20224;-82
2022/09/21 08:33:58;;;;;;;9.83;9.53;;;9.30;99.90;;;;;;5142661;27;20287;-80
2022/09/21 08:36:28;;;;;;;9.30;9.00;;;9.40;99.90;;;;;;5142026;27;20212;-82
2022/09/21 08:38:59;;;;;;;9.73;9.43;;;9.50;99.90;;;;;;5142858;27;20250;-82
2022/09/21 08:42:01;;;;;;;9.80;9.50;;;9.60;99.90;;;;;;5141871;27;20256;-82
2022/09/21 08:44:33;;;;;;;9.40;9.10;;;9.50;99.90;;;;;;5141720;27;20239;-82
2022/09/21 08:47:13;;;;;;;9.90;9.60;;;9.60;99.90;;;;;;5142008;27;20233;-82
2022/09/21 08:49:45;;;;;;;9.80;9.50;;;9.60;99.90;;;;;;5141768;27;20222;-81
2022/09/21 08:52:17;;;;;;;9.60;9.30;;;9.70;99.90;;;;;;5142250;27;20273;-82
2022/09/21 08:54:53;;;;;;;9.60;9.30;;;9.90;99.90;;;;;;5142151;27;20268;-81
2022/09/21 08:57:26;;;;;;;9.70;9.40;;;9.90;99.90;;;;;;5141441;27;20234;-81
2022/09/21 08:59:54;;;;;;;9.80;9.50;;;10.00;99.90;;;;;;5143824;27;20208;-81
2022/09/21 09:02:45;;;;;;;9.40;9.10;;;10.10;99.90;;;;;;5146907;27;20242;-80
2022/09/21 09:05:40;;;;;;;9.40;9.10;;;10.30;99.90;;;;;;5143726;27;20236;-88
2022/09/21 09:08:36;;;;;;;9.53;9.23;;;10.50;99.90;;;;;;5143345;27;20238;-82
2022/09/21 09:11:20;;;;;;;9.53;9.23;;;10.70;99.90;;;;;;5141648;27;20228;-81
2022/09/21 09:14:37;;;;;;;9.87;9.57;;;10.90;99.90;;;;;;5145648;27;20254;-81
2022/09/21 09:17:32;;;;;;;9.60;9.30;;;11.10;99.90;;;;;;5125942;27;20234;-83
2022/09/21 09:20:09;;;;;;;9.60;9.30;;;11.50;99.90;;;;;;5142687;27;20550;-83
2022/09/21 09:22:43;;;;;;;9.80;9.50;;;11.40;99.90;;;;;;5142531;27;20232;-84
2022/09/21 09:25:24;;;;;;;9.70;9.40;;;11.70;99.90;;;;;;5142217;27;20232;-83
2022/09/21 09:27:57;;;;;;;9.90;9.60;;;11.90;99.90;;;;;;5142837;27;20235;-84
2022/09/21 09:30:35;;;;;;;9.70;9.40;;;12.10;99.90;;;;;;5142925;27;20215;-83
2022/09/21 09:33:13;;;;;;;9.50;9.20;;;12.40;99.90;;;;;;5142705;27;20216;-83
2022/09/21 09:35:49;;;;;;;9.13;8.83;;;12.60;99.90;;;;;;5142318;27;20338;-83
2022/09/21 09:38:30;;;;;;;9.20;8.90;;;12.80;99.90;;;;;;5142031;27;20266;-84
2022/09/21 09:41:41;;;;;;;9.63;9.33;;;13.10;99.90;;;;;;5143210;27;20232;-83
2022/09/21 09:44:30;;;;;;;9.73;9.43;;;13.30;99.90;;;;;;5119732;27;20208;-83
2022/09/21 09:47:09;;;;;;;10.00;9.70;;;13.60;99.90;;;;;;5154952;27;20237;-84
2022/09/21 09:49:49;;;;;;;9.90;9.60;;;13.80;99.90;;;;;;5140761;27;20335;-82
2022/09/21 09:52:17;;;;;;;9.93;9.63;;;14.10;99.90;;;;;;5144830;27;20264;-84
2022/09/21 09:54:45;;;;;;;10.00;9.70;;;14.50;99.90;;;;;;5140615;27;20322;-85
2022/09/21 09:57:15;;;;;;;10.20;9.90;;;14.80;99.90;;;;;;5147189;27;20232;-85
2022/09/21 09:59:54;;;;;;;9.67;9.37;;;15.00;99.90;;;;;;5150690;27;20289;-84
2022/09/21 10:05:24;;;;;;;10.00;9.70;;;15.00;99.90;;;;;;5139973;27;20242;-84
2022/09/21 10:07:55;;;;;;;9.83;9.53;;;15.30;99.90;;;;;;5146038;27;20319;-85
2022/09/21 10:10:33;;;;;;;9.70;9.40;;;15.50;99.90;;;;;;5150164;27;20314;-82
2022/09/21 10:13:12;;;;;;;10.20;9.90;;;15.50;99.90;;;;;;5147138;27;20243;-81
2022/09/21 10:15:44;;;;;;;10.50;10.20;;;15.70;99.90;;;;;;5150081;27;20224;-83
2022/09/21 10:18:22;;;;;;;10.40;10.10;;;15.70;99.90;;;;;;5148055;27;20236;-82
2022/09/21 10:20:58;;;;;;;10.60;10.30;;;16.00;99.90;;;;;;5154470;27;20251;-82
2022/09/21 10:23:27;;;;;;;10.80;10.50;;;16.30;99.90;;;;;;5159373;27;20223;-82
2022/09/21 10:25:59;;;;;;;10.73;10.43;;;16.50;99.90;;;;;;5159437;27;20228;-81
2022/09/21 10:28:27;;;;;;;10.65;10.35;;;16.50;99.90;;;;;;5154127;27;20228;-82
2022/09/21 10:31:23;;;;;;;10.20;9.90;;;16.70;99.90;;;;;;5151574;27;20227;-82
2022/09/21 10:34:05;;;;;;;9.98;9.68;;;17.00;99.90;;;;;;5148919;27;20327;-83
2022/09/21 10:36:35;;;;;;;10.30;10.00;;;17.30;99.90;;;;;;5148746;27;20926;-82
2022/09/21 10:39:25;;;;;;;10.75;10.45;;;17.60;99.90;;;;;;5147729;27;20224;-82
2022/09/21 10:41:58;;;;;;;10.60;10.30;;;17.80;99.90;;;;;;5128056;28;20217;-82
2022/09/21 10:44:33;;;;;;;10.80;10.50;;;18.10;99.90;;;;;;5124234;27;20237;-84
2022/09/21 10:47:16;;;;;;;10.65;10.35;;;18.30;99.90;;;;;;5126309;27;20218;-83
2022/09/21 10:50:22;;;;;;;11.15;10.85;;;18.50;99.90;;;;;;5125944;27;20233;-82
2022/09/21 10:52:52;;;;;;;11.05;10.75;;;18.80;99.90;;;;;;5125805;27;20327;-82
2022/09/21 10:55:26;;;;;;;11.32;11.02;;;19.00;99.90;;;;;;5137943;27;20224;-82
2022/09/21 10:57:55;;;;;;;11.07;10.77;;;19.30;99.90;;;;;;5151277;27;20229;-82
2022/09/21 11:00:35;;;;;;;10.85;10.55;;;19.40;99.90;;;;;;5153191;27;20331;-82
2022/09/21 11:03:42;;;;;;;10.82;10.52;;;19.50;99.90;;;;;;5136602;27;20246;-82
2022/09/21 11:06:19;;;;;;;10.48;10.18;;;19.60;99.90;;;;;;5138206;27;20288;-81
2022/09/21 11:08:54;;;;;;;10.57;10.27;;;19.30;99.90;;;;;;5143191;27;20224;-83
2022/09/21 11:11:40;;;;;;;10.82;10.52;;;19.60;99.90;;;;;;5145851;27;20295;-83
2022/09/21 11:14:23;;;;;;;10.70;10.40;;;20.00;99.90;;;;;;5146022;27;20300;-83
2022/09/21 11:16:59;;;;;;;10.90;10.60;;;20.40;99.90;;;;;;5145325;27;20315;-84
2022/09/21 11:23:39;;;;;;;10.60;10.30;;;20.60;99.90;;;;;;5145743;27;20208;-88
2022/09/21 11:33:59;;;;;;;10.95;10.65;;;20.70;99.90;;;;;;4993638;28;20228;-88
2022/09/21 11:37:04;;;;;;;10.88;10.57;;;20.80;99.90;;;;;;5055663;28;20229;-87
2022/09/21 11:40:11;;;;;;;10.80;10.50;;;20.90;99.90;;;;;;5089119;27;20231;-86
2022/09/21 11:43:05;;;;;;;10.68;10.38;;;20.60;99.90;;;;;;5144876;27;20232;-82
2022/09/21 11:46:05;;;;;;;10.60;10.30;;;20.00;99.90;;;;;;5142519;27;20224;-81
2022/09/21 11:48:56;;;;;;;10.50;10.20;;;19.60;99.90;;;;;;5149246;27;20275;-83
2022/09/21 11:51:41;;;;;;;10.25;9.95;;;19.20;99.90;;;;;;5127745;28;20278;-82
2022/09/21 11:54:44;;;;;;;10.60;10.30;;;19.00;99.90;;;;;;5127392;28;20233;-83
2022/09/21 11:57:21;;;;;;;10.50;10.20;;;19.10;99.90;;;;;;5126062;28;20301;-83
2022/09/21 12:00:05;;;;;;;10.70;10.40;;;19.60;99.90;;;;;;5136044;27;20308;-83
2022/09/21 12:03:36;;;;;;;10.80;10.50;;;19.90;99.90;;;;;;5140562;28;20236;-82
2022/09/21 12:06:22;;;;;;;10.90;10.60;;;20.40;99.90;;;;;;5064537;28;20374;-83
2022/09/21 12:09:08;;;;;;;10.80;10.50;;;21.30;99.90;;;;;;5152287;27;20216;-81
2022/09/21 12:11:43;;;;;;;10.82;10.52;;;21.70;99.90;;;;;;5161834;27;20224;-81
2022/09/21 12:14:22;;;;;;;10.70;10.40;;;21.90;99.90;;;;;;5162304;27;20239;-82
2022/09/21 12:16:59;;;;;;;10.63;10.32;;;22.00;99.90;;;;;;5162092;27;20238;-82
2022/09/21 12:19:37;;;;;;;10.32;10.02;;;22.20;99.90;;;;;;5160531;27;20234;-81
2022/09/21 12:22:29;;;;;;;10.60;10.30;;;22.30;99.90;;;;;;5162509;27;20216;-85
2022/09/21 12:25:05;;;;;;;10.48;10.18;;;22.10;99.90;;;;;;5160864;27;20228;-82
2022/09/21 12:27:38;;;;;;;10.30;10.00;;;21.90;99.90;;;;;;5159534;27;20208;-82
2022/09/21 12:30:14;;;;;;;10.77;10.48;;;22.20;99.90;;;;;;5159863;27;20220;-83
2022/09/21 12:32:54;;;;;;;10.82;10.52;;;22.10;99.90;;;;;;5153808;27;20285;-82
2022/09/21 12:35:31;;;;;;;10.85;10.55;;;22.40;99.90;;;;;;5127849;28;20319;-83
2022/09/21 12:41:02;;;;;;;10.40;10.10;;;21.50;99.90;;;;;;5123767;28;20225;-81
2022/09/21 12:43:37;;;;;;;10.48;10.18;;;20.50;99.90;;;;;;5123550;27;20299;-83
2022/09/21 12:46:11;;;;;;;10.80;10.50;;;20.50;99.90;;;;;;5123676;27;20251;-81
2022/09/21 12:48:41;;;;;;;10.60;10.30;;;20.20;99.90;;;;;;5121865;27;20300;-78
2022/09/21 12:51:18;;;;;;;10.60;10.30;;;19.70;99.90;;;;;;5123589;27;20307;-82
2022/09/21 12:53:51;;;;;;;10.50;10.20;;;19.50;99.90;;;;;;5134163;27;20236;-83
2022/09/21 12:56:32;;;;;;;10.70;10.40;;;19.20;99.90;;;;;;5153587;27;20320;-84
2022/09/21 12:59:26;;;;;;;11.15;10.85;;;19.10;99.90;;;;;;5146526;27;20224;-84
2022/09/21 13:02:04;;;;;;;11.05;10.75;;;19.00;99.90;;;;;;5145102;27;20215;-82
2022/09/21 13:04:52;;;;;;;10.85;10.55;;;19.20;99.90;;;;;;5143792;27;20243;-83
2022/09/21 13:08:12;;;;;;;10.82;10.52;;;19.80;99.90;;;;;;5143478;27;20232;-84
2022/09/21 13:10:54;;;;;;;10.55;10.25;;;20.60;99.90;;;;;;5142882;27;21015;-83
2022/09/21 13:13:29;;;;;;;10.85;10.55;;;21.10;99.90;;;;;;5143413;27;20236;-85
2022/09/21 13:15:59;;;;;;;10.82;10.52;;;21.60;99.90;;;;;;5143341;27;20417;-84
2022/09/21 13:18:33;;;;;;;10.85;10.55;;;22.10;99.90;;;;;;5143298;27;20234;-82
2022/09/21 13:21:05;;;;;;;10.40;10.10;;;22.20;99.90;;;;;;5143300;27;20239;-83
2022/09/21 13:23:44;;;;;;;10.57;10.27;;;22.60;99.90;;;;;;5144401;27;20226;-83
2022/09/21 13:26:14;;;;;;;10.48;10.18;;;22.90;99.90;;;;;;5133287;27;20285;-82
2022/09/21 13:29:11;;;;;;;10.32;10.02;;;23.20;99.90;;;;;;5143361;27;20312;-83
2022/09/21 13:31:48;;;;;;;10.43;10.13;;;23.30;99.90;;;;;;5142727;27;20235;-83
2022/09/21 13:34:38;;;;;;;10.40;10.10;;;23.40;99.90;;;;;;5124187;27;20248;-83
2022/09/21 13:37:33;;;;;;;10.38;10.07;;;23.20;99.90;;;;;;5144266;27;20232;-84